sensor_id;sensor_type;location;lat;lon;timestamp;P1;durP1;ratioP1;P2;durP2;ratioP2
74972;SDS011;63529;56.320;43.990;2022-11-12T00:02:08;11.05;;;5.35;;
74972;SDS011;63529;56.320;43.990;2022-11-12T00:04:52;10.88;;;5.03;;
74972;SDS011;63529;56.320;43.990;2022-11-12T00:07:37;10.23;;;5.28;;
74972;SDS011;63529;56.320;43.990;2022-11-12T00:10:21;10.52;;;5.03;;
74972;SDS011;63529;56.320;43.990;2022-11-12T00:13:05;10.73;;;5.13;;
74972;SDS011;63529;56.320;43.990;2022-11-12T00:15:50;11.73;;;4.82;;
74972;SDS011;63529;56.320;43.990;2022-11-12T00:18:34;10.10;;;4.60;;
74972;SDS011;63529;56.320;43.990;2022-11-12T00:21:18;9.95;;;4.45;;
74972;SDS011;63529;56.320;43.990;2022-11-12T00:24:03;8.30;;;4.43;;
74972;SDS011;63529;56.320;43.990;2022-11-12T00:26:47;8.50;;;4.22;;
74972;SDS011;63529;56.320;43.990;2022-11-12T00:29:31;8.55;;;4.40;;
74972;SDS011;63529;56.320;43.990;2022-11-12T00:32:16;11.52;;;3.90;;
74972;SDS011;63529;56.320;43.990;2022-11-12T00:35:01;8.40;;;4.22;;
74972;SDS011;63529;56.320;43.990;2022-11-12T00:37:46;8.00;;;4.22;;
74972;SDS011;63529;56.320;43.990;2022-11-12T00:40:30;8.82;;;3.47;;
74972;SDS011;63529;56.320;43.990;2022-11-12T00:43:14;9.35;;;4.43;;
74972;SDS011;63529;56.320;43.990;2022-11-12T00:45:59;8.90;;;3.75;;
74972;SDS011;63529;56.320;43.990;2022-11-12T00:48:43;7.50;;;3.63;;
74972;SDS011;63529;56.320;43.990;2022-11-12T00:51:28;7.57;;;3.38;;
74972;SDS011;63529;56.320;43.990;2022-11-12T00:54:12;7.22;;;3.83;;
74972;SDS011;63529;56.320;43.990;2022-11-12T00:56:56;8.82;;;3.75;;
74972;SDS011;63529;56.320;43.990;2022-11-12T00:59:41;6.93;;;3.45;;
74972;SDS011;63529;56.320;43.990;2022-11-12T01:02:25;9.13;;;3.80;;
74972;SDS011;63529;56.320;43.990;2022-11-12T01:05:10;6.43;;;3.22;;
74972;SDS011;63529;56.320;43.990;2022-11-12T01:07:54;10.35;;;3.90;;
74972;SDS011;63529;56.320;43.990;2022-11-12T01:10:39;9.00;;;3.83;;
74972;SDS011;63529;56.320;43.990;2022-11-12T01:13:23;6.75;;;3.60;;
74972;SDS011;63529;56.320;43.990;2022-11-12T01:16:08;8.43;;;4.20;;
74972;SDS011;63529;56.320;43.990;2022-11-12T01:19:05;10.40;;;4.00;;
74972;SDS011;63529;56.320;43.990;2022-11-12T01:21:51;7.68;;;3.38;;
74972;SDS011;63529;56.320;43.990;2022-11-12T01:24:35;8.90;;;3.83;;
74972;SDS011;63529;56.320;43.990;2022-11-12T01:27:19;6.90;;;3.53;;
74972;SDS011;63529;56.320;43.990;2022-11-12T01:30:04;8.63;;;3.53;;
74972;SDS011;63529;56.320;43.990;2022-11-12T01:32:49;6.78;;;3.45;;
74972;SDS011;63529;56.320;43.990;2022-11-12T01:35:33;8.20;;;3.50;;
74972;SDS011;63529;56.320;43.990;2022-11-12T01:38:18;5.57;;;3.28;;
74972;SDS011;63529;56.320;43.990;2022-11-12T01:41:03;6.78;;;3.45;;
74972;SDS011;63529;56.320;43.990;2022-11-12T01:44:05;8.70;;;3.60;;
74972;SDS011;63529;56.320;43.990;2022-11-12T01:52:54;6.40;;;2.95;;
74972;SDS011;63529;56.320;43.990;2022-11-12T01:55:42;5.88;;;2.80;;
74972;SDS011;63529;56.320;43.990;2022-11-12T01:58:27;6.65;;;3.50;;
74972;SDS011;63529;56.320;43.990;2022-11-12T02:01:15;5.65;;;3.03;;
74972;SDS011;63529;56.320;43.990;2022-11-12T02:03:59;7.00;;;3.08;;
74972;SDS011;63529;56.320;43.990;2022-11-12T02:06:43;5.15;;;2.58;;
74972;SDS011;63529;56.320;43.990;2022-11-12T02:09:29;5.68;;;2.97;;
74972;SDS011;63529;56.320;43.990;2022-11-12T02:12:14;7.20;;;3.00;;
74972;SDS011;63529;56.320;43.990;2022-11-12T02:15:39;5.95;;;2.80;;
74972;SDS011;63529;56.320;43.990;2022-11-12T02:18:24;4.63;;;2.40;;
74972;SDS011;63529;56.320;43.990;2022-11-12T02:21:09;5.88;;;3.10;;
74972;SDS011;63529;56.320;43.990;2022-11-12T02:27:04;4.53;;;2.67;;
74972;SDS011;63529;56.320;43.990;2022-11-12T02:29:50;5.85;;;2.65;;
74972;SDS011;63529;56.320;43.990;2022-11-12T02:32:34;7.88;;;2.75;;
74972;SDS011;63529;56.320;43.990;2022-11-12T02:35:18;6.00;;;2.47;;
74972;SDS011;63529;56.320;43.990;2022-11-12T02:38:03;6.78;;;2.50;;
74972;SDS011;63529;56.320;43.990;2022-11-12T02:40:48;6.20;;;2.50;;
74972;SDS011;63529;56.320;43.990;2022-11-12T02:43:32;4.53;;;2.17;;
74972;SDS011;63529;56.320;43.990;2022-11-12T02:46:17;5.80;;;2.25;;
74972;SDS011;63529;56.320;43.990;2022-11-12T02:49:01;3.70;;;1.95;;
74972;SDS011;63529;56.320;43.990;2022-11-12T02:51:46;4.32;;;2.53;;
74972;SDS011;63529;56.320;43.990;2022-11-12T02:54:30;4.43;;;2.17;;
74972;SDS011;63529;56.320;43.990;2022-11-12T02:57:14;3.53;;;2.00;;
74972;SDS011;63529;56.320;43.990;2022-11-12T02:59:59;3.45;;;2.10;;
74972;SDS011;63529;56.320;43.990;2022-11-12T03:02:43;4.00;;;1.90;;
74972;SDS011;63529;56.320;43.990;2022-11-12T03:05:42;3.33;;;2.00;;
74972;SDS011;63529;56.320;43.990;2022-11-12T03:08:27;3.70;;;1.60;;
74972;SDS011;63529;56.320;43.990;2022-11-12T03:11:13;3.92;;;2.08;;
74972;SDS011;63529;56.320;43.990;2022-11-12T03:13:59;4.88;;;2.78;;
74972;SDS011;63529;56.320;43.990;2022-11-12T03:16:45;9.43;;;5.97;;
74972;SDS011;63529;56.320;43.990;2022-11-12T03:19:29;16.40;;;9.75;;
74972;SDS011;63529;56.320;43.990;2022-11-12T03:22:14;23.10;;;13.38;;
74972;SDS011;63529;56.320;43.990;2022-11-12T03:24:59;26.38;;;13.95;;
74972;SDS011;63529;56.320;43.990;2022-11-12T03:27:43;16.10;;;10.07;;
74972;SDS011;63529;56.320;43.990;2022-11-12T03:30:28;21.13;;;11.75;;
74972;SDS011;63529;56.320;43.990;2022-11-12T03:33:14;14.93;;;7.40;;
74972;SDS011;63529;56.320;43.990;2022-11-12T03:35:59;7.75;;;3.35;;
74972;SDS011;63529;56.320;43.990;2022-11-12T03:38:43;5.82;;;2.80;;
74972;SDS011;63529;56.320;43.990;2022-11-12T03:41:27;3.63;;;2.10;;
74972;SDS011;63529;56.320;43.990;2022-11-12T03:44:12;3.70;;;2.10;;
74972;SDS011;63529;56.320;43.990;2022-11-12T03:46:56;3.70;;;1.63;;
74972;SDS011;63529;56.320;43.990;2022-11-12T03:49:40;5.18;;;1.98;;
74972;SDS011;63529;56.320;43.990;2022-11-12T03:52:25;5.10;;;2.00;;
74972;SDS011;63529;56.320;43.990;2022-11-12T03:55:09;3.45;;;1.90;;
74972;SDS011;63529;56.320;43.990;2022-11-12T03:57:54;2.80;;;1.70;;
74972;SDS011;63529;56.320;43.990;2022-11-12T04:00:40;2.05;;;1.50;;
74972;SDS011;63529;56.320;43.990;2022-11-12T04:03:24;2.70;;;1.63;;
74972;SDS011;63529;56.320;43.990;2022-11-12T04:06:09;3.35;;;1.88;;
74972;SDS011;63529;56.320;43.990;2022-11-12T04:09:12;2.70;;;1.63;;
74972;SDS011;63529;56.320;43.990;2022-11-12T04:11:56;5.13;;;1.80;;
74972;SDS011;63529;56.320;43.990;2022-11-12T04:15:01;2.88;;;1.90;;
74972;SDS011;63529;56.320;43.990;2022-11-12T04:17:45;5.95;;;1.58;;
74972;SDS011;63529;56.320;43.990;2022-11-12T04:20:48;3.47;;;1.90;;
74972;SDS011;63529;56.320;43.990;2022-11-12T04:23:52;3.75;;;2.13;;
74972;SDS011;63529;56.320;43.990;2022-11-12T04:26:36;3.28;;;2.00;;
74972;SDS011;63529;56.320;43.990;2022-11-12T04:29:20;3.60;;;1.98;;
74972;SDS011;63529;56.320;43.990;2022-11-12T04:32:23;3.40;;;1.92;;
74972;SDS011;63529;56.320;43.990;2022-11-12T04:35:08;4.30;;;2.40;;
74972;SDS011;63529;56.320;43.990;2022-11-12T04:37:52;4.03;;;2.00;;
74972;SDS011;63529;56.320;43.990;2022-11-12T04:40:38;3.13;;;1.92;;
74972;SDS011;63529;56.320;43.990;2022-11-12T04:43:41;4.70;;;2.10;;
74972;SDS011;63529;56.320;43.990;2022-11-12T04:46:44;4.63;;;2.28;;
74972;SDS011;63529;56.320;43.990;2022-11-12T04:49:28;4.30;;;2.40;;
74972;SDS011;63529;56.320;43.990;2022-11-12T04:52:13;6.25;;;2.38;;
74972;SDS011;63529;56.320;43.990;2022-11-12T04:54:57;2.97;;;2.00;;
74972;SDS011;63529;56.320;43.990;2022-11-12T04:57:42;5.72;;;2.80;;
74972;SDS011;63529;56.320;43.990;2022-11-12T05:00:27;4.43;;;2.45;;
74972;SDS011;63529;56.320;43.990;2022-11-12T05:03:12;4.43;;;2.55;;
74972;SDS011;63529;56.320;43.990;2022-11-12T05:05:59;5.20;;;2.92;;
74972;SDS011;63529;56.320;43.990;2022-11-12T05:08:45;4.82;;;2.60;;
74972;SDS011;63529;56.320;43.990;2022-11-12T05:11:29;5.72;;;2.42;;
74972;SDS011;63529;56.320;43.990;2022-11-12T05:14:14;4.90;;;2.50;;
74972;SDS011;63529;56.320;43.990;2022-11-12T05:16:58;4.70;;;2.38;;
74972;SDS011;63529;56.320;43.990;2022-11-12T05:19:42;4.75;;;2.28;;
74972;SDS011;63529;56.320;43.990;2022-11-12T05:22:28;4.50;;;2.30;;
74972;SDS011;63529;56.320;43.990;2022-11-12T05:25:13;4.43;;;2.65;;
74972;SDS011;63529;56.320;43.990;2022-11-12T05:27:57;4.55;;;2.78;;
74972;SDS011;63529;56.320;43.990;2022-11-12T05:30:42;4.43;;;2.88;;
74972;SDS011;63529;56.320;43.990;2022-11-12T05:33:26;5.07;;;2.70;;
74972;SDS011;63529;56.320;43.990;2022-11-12T05:36:10;5.13;;;3.00;;
74972;SDS011;63529;56.320;43.990;2022-11-12T05:38:55;7.50;;;2.80;;
74972;SDS011;63529;56.320;43.990;2022-11-12T05:41:39;8.30;;;3.10;;
74972;SDS011;63529;56.320;43.990;2022-11-12T05:44:24;4.93;;;2.70;;
74972;SDS011;63529;56.320;43.990;2022-11-12T05:47:08;7.85;;;3.22;;
74972;SDS011;63529;56.320;43.990;2022-11-12T05:49:52;4.72;;;2.72;;
74972;SDS011;63529;56.320;43.990;2022-11-12T05:52:36;13.32;;;3.17;;
74972;SDS011;63529;56.320;43.990;2022-11-12T05:55:21;7.18;;;2.83;;
74972;SDS011;63529;56.320;43.990;2022-11-12T05:58:05;7.57;;;3.22;;
74972;SDS011;63529;56.320;43.990;2022-11-12T06:00:50;6.80;;;3.22;;
74972;SDS011;63529;56.320;43.990;2022-11-12T06:03:34;7.25;;;3.20;;
74972;SDS011;63529;56.320;43.990;2022-11-12T06:06:19;7.28;;;3.00;;
74972;SDS011;63529;56.320;43.990;2022-11-12T06:09:03;6.85;;;3.20;;
74972;SDS011;63529;56.320;43.990;2022-11-12T06:11:48;17.50;;;4.00;;
74972;SDS011;63529;56.320;43.990;2022-11-12T06:14:32;6.65;;;3.35;;
74972;SDS011;63529;56.320;43.990;2022-11-12T06:17:16;9.43;;;3.92;;
74972;SDS011;63529;56.320;43.990;2022-11-12T06:20:01;7.57;;;3.50;;
74972;SDS011;63529;56.320;43.990;2022-11-12T06:22:45;8.10;;;3.97;;
74972;SDS011;63529;56.320;43.990;2022-11-12T06:25:30;8.95;;;3.85;;
74972;SDS011;63529;56.320;43.990;2022-11-12T06:28:14;7.43;;;3.50;;
74972;SDS011;63529;56.320;43.990;2022-11-12T06:30:59;8.10;;;3.30;;
74972;SDS011;63529;56.320;43.990;2022-11-12T06:33:43;7.55;;;3.47;;
74972;SDS011;63529;56.320;43.990;2022-11-12T06:36:28;5.90;;;3.28;;
74972;SDS011;63529;56.320;43.990;2022-11-12T06:39:13;8.73;;;2.80;;
74972;SDS011;63529;56.320;43.990;2022-11-12T06:41:58;4.20;;;2.63;;
74972;SDS011;63529;56.320;43.990;2022-11-12T06:44:42;5.68;;;2.97;;
74972;SDS011;63529;56.320;43.990;2022-11-12T06:47:29;11.05;;;3.90;;
74972;SDS011;63529;56.320;43.990;2022-11-12T06:50:13;6.03;;;3.20;;
74972;SDS011;63529;56.320;43.990;2022-11-12T06:52:58;4.90;;;3.08;;
74972;SDS011;63529;56.320;43.990;2022-11-12T06:55:43;4.72;;;2.50;;
74972;SDS011;63529;56.320;43.990;2022-11-12T06:58:27;6.85;;;2.97;;
74972;SDS011;63529;56.320;43.990;2022-11-12T07:01:13;5.40;;;2.70;;
74972;SDS011;63529;56.320;43.990;2022-11-12T07:03:58;5.53;;;2.72;;
74972;SDS011;63529;56.320;43.990;2022-11-12T07:06:43;4.53;;;2.85;;
74972;SDS011;63529;56.320;43.990;2022-11-12T07:09:27;4.55;;;2.53;;
74972;SDS011;63529;56.320;43.990;2022-11-12T07:12:12;8.85;;;3.70;;
74972;SDS011;63529;56.320;43.990;2022-11-12T07:14:56;6.05;;;3.00;;
74972;SDS011;63529;56.320;43.990;2022-11-12T07:17:43;5.63;;;2.45;;
74972;SDS011;63529;56.320;43.990;2022-11-12T07:20:28;5.55;;;2.83;;
74972;SDS011;63529;56.320;43.990;2022-11-12T07:23:13;5.53;;;2.85;;
74972;SDS011;63529;56.320;43.990;2022-11-12T07:25:58;7.35;;;2.78;;
74972;SDS011;63529;56.320;43.990;2022-11-12T07:28:44;6.53;;;3.15;;
74972;SDS011;63529;56.320;43.990;2022-11-12T07:31:29;6.20;;;3.35;;
74972;SDS011;63529;56.320;43.990;2022-11-12T07:34:13;4.88;;;2.72;;
74972;SDS011;63529;56.320;43.990;2022-11-12T07:36:58;7.13;;;3.20;;
74972;SDS011;63529;56.320;43.990;2022-11-12T07:39:42;6.82;;;2.60;;
74972;SDS011;63529;56.320;43.990;2022-11-12T07:42:31;6.22;;;3.10;;
74972;SDS011;63529;56.320;43.990;2022-11-12T07:45:16;7.57;;;3.08;;
74972;SDS011;63529;56.320;43.990;2022-11-12T07:48:00;7.35;;;3.30;;
74972;SDS011;63529;56.320;43.990;2022-11-12T07:50:45;6.60;;;2.97;;
74972;SDS011;63529;56.320;43.990;2022-11-12T07:53:29;5.70;;;2.38;;
74972;SDS011;63529;56.320;43.990;2022-11-12T07:56:15;4.65;;;2.60;;
74972;SDS011;63529;56.320;43.990;2022-11-12T07:59:01;7.78;;;3.00;;
74972;SDS011;63529;56.320;43.990;2022-11-12T08:01:45;4.75;;;2.78;;
74972;SDS011;63529;56.320;43.990;2022-11-12T08:04:30;7.57;;;2.80;;
74972;SDS011;63529;56.320;43.990;2022-11-12T08:07:15;5.93;;;2.92;;
74972;SDS011;63529;56.320;43.990;2022-11-12T08:09:59;6.82;;;2.45;;
74972;SDS011;63529;56.320;43.990;2022-11-12T08:12:44;7.40;;;3.42;;
74972;SDS011;63529;56.320;43.990;2022-11-12T08:15:28;7.30;;;2.90;;
74972;SDS011;63529;56.320;43.990;2022-11-12T08:18:13;5.53;;;2.70;;
74972;SDS011;63529;56.320;43.990;2022-11-12T08:21:01;5.25;;;2.38;;
74972;SDS011;63529;56.320;43.990;2022-11-12T08:23:47;5.82;;;2.53;;
74972;SDS011;63529;56.320;43.990;2022-11-12T08:26:32;7.65;;;2.80;;
74972;SDS011;63529;56.320;43.990;2022-11-12T08:29:16;4.28;;;2.30;;
74972;SDS011;63529;56.320;43.990;2022-11-12T08:32:01;4.28;;;2.05;;
74972;SDS011;63529;56.320;43.990;2022-11-12T08:34:45;4.40;;;2.10;;
74972;SDS011;63529;56.320;43.990;2022-11-12T08:37:30;4.60;;;2.75;;
74972;SDS011;63529;56.320;43.990;2022-11-12T08:40:14;5.30;;;2.60;;
74972;SDS011;63529;56.320;43.990;2022-11-12T08:42:59;5.68;;;2.70;;
74972;SDS011;63529;56.320;43.990;2022-11-12T08:45:45;5.40;;;3.50;;
74972;SDS011;63529;56.320;43.990;2022-11-12T08:48:31;6.75;;;2.97;;
74972;SDS011;63529;56.320;43.990;2022-11-12T08:51:17;6.13;;;2.78;;
74972;SDS011;63529;56.320;43.990;2022-11-12T08:54:01;5.95;;;3.03;;
74972;SDS011;63529;56.320;43.990;2022-11-12T08:56:46;9.07;;;3.45;;
74972;SDS011;63529;56.320;43.990;2022-11-12T08:59:30;8.63;;;3.00;;
74972;SDS011;63529;56.320;43.990;2022-11-12T09:02:15;5.68;;;3.30;;
74972;SDS011;63529;56.320;43.990;2022-11-12T09:04:59;4.72;;;2.50;;
74972;SDS011;63529;56.320;43.990;2022-11-12T09:07:44;7.43;;;3.35;;
74972;SDS011;63529;56.320;43.990;2022-11-12T09:10:28;6.32;;;3.22;;
74972;SDS011;63529;56.320;43.990;2022-11-12T09:13:13;9.90;;;3.83;;
74972;SDS011;63529;56.320;43.990;2022-11-12T09:15:58;10.40;;;3.13;;
74972;SDS011;63529;56.320;43.990;2022-11-12T09:18:44;7.30;;;2.80;;
74972;SDS011;63529;56.320;43.990;2022-11-12T09:21:29;4.82;;;3.03;;
74972;SDS011;63529;56.320;43.990;2022-11-12T09:24:13;6.93;;;3.28;;
74972;SDS011;63529;56.320;43.990;2022-11-12T09:26:57;10.30;;;3.58;;
74972;SDS011;63529;56.320;43.990;2022-11-12T09:29:42;11.85;;;3.60;;
74972;SDS011;63529;56.320;43.990;2022-11-12T09:32:29;6.32;;;3.22;;
74972;SDS011;63529;56.320;43.990;2022-11-12T09:35:14;6.78;;;3.25;;
74972;SDS011;63529;56.320;43.990;2022-11-12T09:37:58;6.50;;;3.53;;
74972;SDS011;63529;56.320;43.990;2022-11-12T09:43:55;6.13;;;3.10;;
74972;SDS011;63529;56.320;43.990;2022-11-12T09:46:45;4.35;;;3.08;;
74972;SDS011;63529;56.320;43.990;2022-11-12T09:49:42;8.43;;;2.97;;
74972;SDS011;63529;56.320;43.990;2022-11-12T09:52:31;5.70;;;3.40;;
74972;SDS011;63529;56.320;43.990;2022-11-12T09:55:17;4.90;;;3.15;;
74972;SDS011;63529;56.320;43.990;2022-11-12T09:58:10;7.13;;;3.25;;
74972;SDS011;63529;56.320;43.990;2022-11-12T10:00:57;6.70;;;2.90;;
74972;SDS011;63529;56.320;43.990;2022-11-12T10:04:02;6.35;;;3.42;;
74972;SDS011;63529;56.320;43.990;2022-11-12T10:10:15;5.20;;;2.83;;
74972;SDS011;63529;56.320;43.990;2022-11-12T10:19:48;3.22;;;2.40;;
74972;SDS011;63529;56.320;43.990;2022-11-12T10:25:42;5.25;;;2.60;;
74972;SDS011;63529;56.320;43.990;2022-11-12T10:28:32;4.63;;;2.47;;
74972;SDS011;63529;56.320;43.990;2022-11-12T10:31:22;5.13;;;2.58;;
74972;SDS011;63529;56.320;43.990;2022-11-12T10:36:55;4.32;;;2.20;;
74972;SDS011;63529;56.320;43.990;2022-11-12T10:39:44;3.28;;;2.03;;
74972;SDS011;63529;56.320;43.990;2022-11-12T10:42:30;4.43;;;2.50;;
74972;SDS011;63529;56.320;43.990;2022-11-12T10:45:19;3.17;;;2.08;;
74972;SDS011;63529;56.320;43.990;2022-11-12T10:48:18;3.40;;;2.00;;
74972;SDS011;63529;56.320;43.990;2022-11-12T10:51:16;3.97;;;2.75;;
74972;SDS011;63529;56.320;43.990;2022-11-12T10:57:27;7.10;;;2.53;;
74972;SDS011;63529;56.320;43.990;2022-11-12T11:03:01;4.90;;;2.80;;
74972;SDS011;63529;56.320;43.990;2022-11-12T11:05:58;9.38;;;2.60;;
74972;SDS011;63529;56.320;43.990;2022-11-12T11:08:49;5.47;;;2.50;;
74972;SDS011;63529;56.320;43.990;2022-11-12T11:11:35;6.47;;;2.70;;
74972;SDS011;63529;56.320;43.990;2022-11-12T11:17:05;3.53;;;1.95;;
74972;SDS011;63529;56.320;43.990;2022-11-12T11:19:59;7.53;;;2.60;;
74972;SDS011;63529;56.320;43.990;2022-11-12T11:22:44;3.65;;;1.88;;
74972;SDS011;63529;56.320;43.990;2022-11-12T11:25:31;4.88;;;2.40;;
74972;SDS011;63529;56.320;43.990;2022-11-12T11:28:31;5.28;;;2.10;;
74972;SDS011;63529;56.320;43.990;2022-11-12T11:44:20;4.80;;;2.22;;
74972;SDS011;63529;56.320;43.990;2022-11-12T11:47:21;6.13;;;2.30;;
74972;SDS011;63529;56.320;43.990;2022-11-12T11:50:28;4.85;;;2.45;;
74972;SDS011;63529;56.320;43.990;2022-11-12T11:53:29;7.03;;;2.92;;
74972;SDS011;63529;56.320;43.990;2022-11-12T11:56:41;7.75;;;2.58;;
74972;SDS011;63529;56.320;43.990;2022-11-12T12:12:29;8.75;;;3.15;;
74972;SDS011;63529;56.320;43.990;2022-11-12T12:21:36;6.93;;;3.33;;
74972;SDS011;63529;56.320;43.990;2022-11-12T12:24:29;9.18;;;3.30;;
74972;SDS011;63529;56.320;43.990;2022-11-12T12:27:27;6.82;;;3.13;;
74972;SDS011;63529;56.320;43.990;2022-11-12T12:30:21;6.95;;;2.95;;
74972;SDS011;63529;56.320;43.990;2022-11-12T12:36:39;6.57;;;2.90;;
74972;SDS011;63529;56.320;43.990;2022-11-12T12:39:28;10.43;;;5.95;;
74972;SDS011;63529;56.320;43.990;2022-11-12T12:42:36;6.47;;;3.15;;
74972;SDS011;63529;56.320;43.990;2022-11-12T12:45:33;8.13;;;3.22;;
74972;SDS011;63529;56.320;43.990;2022-11-12T12:48:26;6.68;;;3.25;;
74972;SDS011;63529;56.320;43.990;2022-11-12T12:51:15;8.93;;;3.63;;
74972;SDS011;63529;56.320;43.990;2022-11-12T12:54:00;6.85;;;3.30;;
74972;SDS011;63529;56.320;43.990;2022-11-12T12:56:45;6.05;;;2.72;;
74972;SDS011;63529;56.320;43.990;2022-11-12T12:59:31;6.65;;;3.10;;
74972;SDS011;63529;56.320;43.990;2022-11-12T13:02:20;5.50;;;2.97;;
74972;SDS011;63529;56.320;43.990;2022-11-12T13:05:20;6.50;;;3.17;;
74972;SDS011;63529;56.320;43.990;2022-11-12T13:08:24;6.25;;;2.95;;
74972;SDS011;63529;56.320;43.990;2022-11-12T13:11:09;6.45;;;3.13;;
74972;SDS011;63529;56.320;43.990;2022-11-12T13:13:54;4.43;;;3.00;;
74972;SDS011;63529;56.320;43.990;2022-11-12T13:17:00;7.05;;;2.70;;
74972;SDS011;63529;56.320;43.990;2022-11-12T13:19:46;5.00;;;2.70;;
74972;SDS011;63529;56.320;43.990;2022-11-12T13:25:24;5.88;;;2.55;;
74972;SDS011;63529;56.320;43.990;2022-11-12T13:28:11;6.15;;;3.33;;
74972;SDS011;63529;56.320;43.990;2022-11-12T13:30:56;7.05;;;3.03;;
74972;SDS011;63529;56.320;43.990;2022-11-12T13:33:41;8.48;;;3.83;;
74972;SDS011;63529;56.320;43.990;2022-11-12T13:36:27;7.00;;;2.67;;
74972;SDS011;63529;56.320;43.990;2022-11-12T13:39:15;5.10;;;2.60;;
74972;SDS011;63529;56.320;43.990;2022-11-12T13:42:10;7.72;;;3.00;;
74972;SDS011;63529;56.320;43.990;2022-11-12T13:45:17;10.98;;;2.88;;
74972;SDS011;63529;56.320;43.990;2022-11-12T13:48:05;5.97;;;2.53;;
74972;SDS011;63529;56.320;43.990;2022-11-12T13:50:52;4.50;;;2.30;;
74972;SDS011;63529;56.320;43.990;2022-11-12T13:53:40;7.20;;;2.78;;
74972;SDS011;63529;56.320;43.990;2022-11-12T13:56:26;3.55;;;2.20;;
74972;SDS011;63529;56.320;43.990;2022-11-12T13:59:16;4.32;;;2.55;;
74972;SDS011;63529;56.320;43.990;2022-11-12T14:02:03;6.75;;;3.03;;
74972;SDS011;63529;56.320;43.990;2022-11-12T14:04:59;4.22;;;2.05;;
74972;SDS011;63529;56.320;43.990;2022-11-12T14:13:59;5.20;;;2.17;;
74972;SDS011;63529;56.320;43.990;2022-11-12T14:19:53;4.47;;;2.17;;
74972;SDS011;63529;56.320;43.990;2022-11-12T14:23:15;3.97;;;2.25;;
74972;SDS011;63529;56.320;43.990;2022-11-12T14:26:03;3.60;;;2.30;;
74972;SDS011;63529;56.320;43.990;2022-11-12T14:28:50;4.57;;;2.28;;
74972;SDS011;63529;56.320;43.990;2022-11-12T14:31:38;3.55;;;2.10;;
74972;SDS011;63529;56.320;43.990;2022-11-12T14:34:27;5.82;;;3.10;;
74972;SDS011;63529;56.320;43.990;2022-11-12T14:37:47;5.22;;;2.40;;
74972;SDS011;63529;56.320;43.990;2022-11-12T14:40:28;3.53;;;2.00;;
74972;SDS011;63529;56.320;43.990;2022-11-12T14:46:05;3.70;;;2.10;;
74972;SDS011;63529;56.320;43.990;2022-11-12T14:52:15;6.18;;;2.45;;
74972;SDS011;63529;56.320;43.990;2022-11-12T14:55:16;7.22;;;3.42;;
74972;SDS011;63529;56.320;43.990;2022-11-12T14:58:03;4.30;;;2.30;;
74972;SDS011;63529;56.320;43.990;2022-11-12T15:00:50;3.05;;;1.80;;
74972;SDS011;63529;56.320;43.990;2022-11-12T15:03:36;3.63;;;2.08;;
74972;SDS011;63529;56.320;43.990;2022-11-12T15:06:27;3.97;;;2.05;;
74972;SDS011;63529;56.320;43.990;2022-11-12T15:09:15;3.65;;;2.20;;
74972;SDS011;63529;56.320;43.990;2022-11-12T15:12:05;3.22;;;2.00;;
74972;SDS011;63529;56.320;43.990;2022-11-12T15:14:52;4.50;;;2.10;;
74972;SDS011;63529;56.320;43.990;2022-11-12T15:17:46;4.50;;;1.80;;
74972;SDS011;63529;56.320;43.990;2022-11-12T15:20:38;3.78;;;2.10;;
74972;SDS011;63529;56.320;43.990;2022-11-12T15:23:23;4.50;;;2.05;;
74972;SDS011;63529;56.320;43.990;2022-11-12T15:26:10;3.55;;;1.23;;
74972;SDS011;63529;56.320;43.990;2022-11-12T15:31:58;3.03;;;1.38;;
74972;SDS011;63529;56.320;43.990;2022-11-12T15:34:46;2.35;;;1.20;;
74972;SDS011;63529;56.320;43.990;2022-11-12T15:37:34;0.98;;;0.82;;
74972;SDS011;63529;56.320;43.990;2022-11-12T15:40:25;1.52;;;1.05;;
74972;SDS011;63529;56.320;43.990;2022-11-12T15:43:13;2.70;;;1.27;;
74972;SDS011;63529;56.320;43.990;2022-11-12T15:46:00;1.98;;;1.05;;
74972;SDS011;63529;56.320;43.990;2022-11-12T15:48:44;1.45;;;1.08;;
74972;SDS011;63529;56.320;43.990;2022-11-12T15:51:29;1.48;;;1.00;;
74972;SDS011;63529;56.320;43.990;2022-11-12T15:54:13;1.45;;;1.15;;
74972;SDS011;63529;56.320;43.990;2022-11-12T15:56:58;1.38;;;0.90;;
74972;SDS011;63529;56.320;43.990;2022-11-12T15:59:42;1.77;;;1.13;;
74972;SDS011;63529;56.320;43.990;2022-11-12T16:02:29;1.35;;;1.08;;
74972;SDS011;63529;56.320;43.990;2022-11-12T16:05:14;2.20;;;1.23;;
74972;SDS011;63529;56.320;43.990;2022-11-12T16:08:00;2.20;;;1.05;;
74972;SDS011;63529;56.320;43.990;2022-11-12T16:10:45;2.42;;;1.40;;
74972;SDS011;63529;56.320;43.990;2022-11-12T16:13:31;2.15;;;1.55;;
74972;SDS011;63529;56.320;43.990;2022-11-12T16:16:16;3.40;;;2.00;;
74972;SDS011;63529;56.320;43.990;2022-11-12T16:19:00;2.35;;;1.38;;
74972;SDS011;63529;56.320;43.990;2022-11-12T16:21:45;4.00;;;1.95;;
74972;SDS011;63529;56.320;43.990;2022-11-12T16:24:29;2.83;;;1.50;;
74972;SDS011;63529;56.320;43.990;2022-11-12T16:27:14;3.03;;;1.50;;
74972;SDS011;63529;56.320;43.990;2022-11-12T16:29:58;4.07;;;2.08;;
74972;SDS011;63529;56.320;43.990;2022-11-12T16:32:43;3.45;;;2.00;;
74972;SDS011;63529;56.320;43.990;2022-11-12T16:35:28;4.70;;;2.60;;
74972;SDS011;63529;56.320;43.990;2022-11-12T16:38:17;3.33;;;1.80;;
74972;SDS011;63529;56.320;43.990;2022-11-12T16:41:02;3.45;;;1.92;;
74972;SDS011;63529;56.320;43.990;2022-11-12T16:43:46;4.40;;;1.80;;
74972;SDS011;63529;56.320;43.990;2022-11-12T16:46:34;4.63;;;1.90;;
74972;SDS011;63529;56.320;43.990;2022-11-12T16:49:23;3.83;;;1.60;;
74972;SDS011;63529;56.320;43.990;2022-11-12T16:52:09;6.22;;;1.90;;
74972;SDS011;63529;56.320;43.990;2022-11-12T16:54:53;3.88;;;1.73;;
74972;SDS011;63529;56.320;43.990;2022-11-12T16:57:38;5.30;;;1.65;;
74972;SDS011;63529;56.320;43.990;2022-11-12T17:00:23;2.67;;;1.70;;
74972;SDS011;63529;56.320;43.990;2022-11-12T17:03:09;3.05;;;1.50;;
74972;SDS011;63529;56.320;43.990;2022-11-12T17:05:55;2.55;;;1.58;;
74972;SDS011;63529;56.320;43.990;2022-11-12T17:08:40;4.35;;;1.73;;
74972;SDS011;63529;56.320;43.990;2022-11-12T17:11:24;4.72;;;1.40;;
74972;SDS011;63529;56.320;43.990;2022-11-12T17:14:09;5.22;;;1.85;;
74972;SDS011;63529;56.320;43.990;2022-11-12T17:16:54;1.83;;;1.13;;
74972;SDS011;63529;56.320;43.990;2022-11-12T17:19:38;3.55;;;1.40;;
74972;SDS011;63529;56.320;43.990;2022-11-12T17:22:23;2.53;;;1.25;;
74972;SDS011;63529;56.320;43.990;2022-11-12T17:25:08;2.05;;;1.02;;
74972;SDS011;63529;56.320;43.990;2022-11-12T17:27:52;2.80;;;0.93;;
74972;SDS011;63529;56.320;43.990;2022-11-12T17:30:38;1.92;;;1.10;;
74972;SDS011;63529;56.320;43.990;2022-11-12T17:33:22;2.83;;;1.13;;
74972;SDS011;63529;56.320;43.990;2022-11-12T17:36:08;3.10;;;0.90;;
74972;SDS011;63529;56.320;43.990;2022-11-12T17:38:55;3.13;;;0.90;;
74972;SDS011;63529;56.320;43.990;2022-11-12T17:41:41;1.33;;;0.80;;
74972;SDS011;63529;56.320;43.990;2022-11-12T17:44:25;1.63;;;0.70;;
74972;SDS011;63529;56.320;43.990;2022-11-12T17:47:09;1.90;;;0.47;;
74972;SDS011;63529;56.320;43.990;2022-11-12T17:49:53;1.30;;;0.50;;
74972;SDS011;63529;56.320;43.990;2022-11-12T17:52:38;1.25;;;0.43;;
74972;SDS011;63529;56.320;43.990;2022-11-12T17:55:22;0.82;;;0.30;;
74972;SDS011;63529;56.320;43.990;2022-11-12T17:58:07;0.28;;;0.28;;
74972;SDS011;63529;56.320;43.990;2022-11-12T18:00:52;0.95;;;0.50;;
74972;SDS011;63529;56.320;43.990;2022-11-12T18:03:40;0.13;;;0.13;;
74972;SDS011;63529;56.320;43.990;2022-11-12T18:06:27;0.43;;;0.25;;